Airfield :
LOGIN :

Register | Disclaimer

   EN    FR    IT 

 










Legend :    VFR   Marginal VFR   IFR   Intensive IFR   Very Intensive IFR
Visi :
Ceiling :
>= 8 km
>= 3000ft
5 to 8 km
1000 to 3000 ft
1500m to 5 km
500 to 1000 ft
800 to 1500m
200 to 500 ft
< 800m
< 200 ft
Symbols :   Thunderstorms  Fog  Heavy snow  Heavy precipitations  Wind > 20 kt
SIGMETs :     Misc.  Thunderstorms  Icing  Turbulence  Mountain Waves  Volcanic Ashes







- Airport Elevation : 200 ft


EBBL - Klein Brogel AB

CURRENT METAR :
  • 121655Z AUTO 04004KT 9999 SCT035/// 02/00 Q1025 BLU

EXPIRED METARs :
  • 121625Z AUTO VRB02KT 9999 OVC036/// 03/01 Q1025 BLU
  • 121555Z AUTO VRB02KT 9999 OVC037/// 03/01 Q1025 BLU
  • 121525Z AUTO 05003KT 9999 BKN037/// 03/01 Q1025 BLU
  • 121513Z AUTO 07003KT 9000 BKN035/// 03/02 Q1025 BLU
  • 121455Z AUTO 06004KT 7000 OVC035/// 04/02 Q1025 WHT
  • 121452Z AUTO 06004KT 8000 OVC034/// 04/02 Q1025 BLU
  • 121433Z AUTO 06004KT 7000 FEW011/// OVC034/// 04/02 Q1025 WHT
  • 121422Z AUTO 06005KT 8000 FEW011/// OVC035/// 04/02 Q1025 BLU
  • 121408Z 05005KT 5000 BKN035 04/03 Q1025 WHT FCST CANCEL
  • 121355Z 06005KT 5000 BKN035 04/02 Q1025 WHT WHT

TAF TAF EBBL
Valid from the 12 at 10:00 until the 12 at 19:00 UTC


120841Z 1210/1219 06005KT 3000 BR FEW003 SCT004 BKN005
BECMG 1212/1214 6000 NSW SCT006 BKN010
No reported NOTAMs for that airfield.



MET'MAP, your aeronautical weather chart ! - Copyright ORBIFLY December 2007 - Disclaimer

ORBIFLY MET'MAP TEAM :

Programming & Development : Alexandra Zaïnal
Concept & Development : Baudouin d'Aumeries
Co-Development & Prog : Marc-Olivier Méhu
Technical & hardware support : Manuel Goepfert

Contact : metmap@orbifly.com




SOURCES & CREDITS :

   NOAA